Van Kinsbergen — PAKB — position and weather

sailwx.info

Track history (hours):
 
Tides and Currents Weather Stations Pressure Air Temp Water Temp Dewpoint Dewpoint Depression Visibility Wind Speed Wind Dir Waves Ship Positions

Van Kinsbergen

Last reported at 2014-Nov-24 05:33 UTC. Time now 2014-Nov-24 06:58 UTC.
Position N 52°58' E 004°47'.

Length 40 m; draft 3.1 m.

MMSI: 244736000.

Date/timePositionNaut miles runAvg speedWind from/ knotsBaromVisibWave heightAir tempDewpointWater temp
2014-Nov-24 05:33N 52°58' E 004°47'0 0.0
2014-Nov-24 04:33N 52°58' E 004°47'0 0.0
2014-Nov-24 03:33N 52°58' E 004°47'0 0.0
2014-Nov-24 02:33N 52°58' E 004°47'0 0.0
2014-Nov-24 01:33N 52°58' E 004°47'0 0.0
2014-Nov-24 00:30N 52°58' E 004°47'0 0.0
2014-Nov-23 23:33N 52°58' E 004°47'0 0.0
2014-Nov-23 22:33N 52°58' E 004°47'0 0.0
2014-Nov-23 21:33N 52°58' E 004°47'0 0.0
2014-Nov-23 20:33N 52°58' E 004°47'0 0.0
2014-Nov-23 19:33N 52°58' E 004°47'0 0.0
2014-Nov-23 18:33N 52°58' E 004°47'0 0.0
2014-Nov-23 17:33N 52°58' E 004°47'0 0.0
2014-Nov-23 16:33N 52°58' E 004°47'0 0.0
2014-Nov-23 15:33N 52°58' E 004°47'0 0.0
2014-Nov-23 14:33N 52°58' E 004°47'0 0.0
2014-Nov-23 13:33N 52°58' E 004°47'0 0.0
2014-Nov-23 12:33N 52°58' E 004°47'0 0.0
2014-Nov-23 11:33N 52°58' E 004°47'0 0.0
2014-Nov-23 10:33N 52°58' E 004°47'0 0.0
2014-Nov-23 09:30N 52°58' E 004°47'0 0.0
2014-Nov-23 08:33N 52°58' E 004°47'0 0.0
2014-Nov-23 07:33N 52°58' E 004°47'0 0.0
2014-Nov-23 06:30N 52°58' E 004°47'0 0.0
2014-Nov-23 05:30N 52°58' E 004°47'0 0.0
2014-Nov-23 04:27N 52°58' E 004°47'0 0.0
2014-Nov-23 03:33N 52°58' E 004°47'0 0.0
2014-Nov-23 02:33N 52°58' E 004°47'0 0.0
2014-Nov-23 01:33N 52°58' E 004°47'0 0.0
2014-Nov-23 00:33N 52°58' E 004°47'0 0.0
2014-Nov-22 23:33N 52°58' E 004°47'0 0.0
2014-Nov-22 22:30N 52°58' E 004°47'0 0.0
2014-Nov-22 21:33N 52°58' E 004°47'0 0.0
2014-Nov-22 20:33N 52°58' E 004°47'0 0.0
2014-Nov-22 19:33N 52°58' E 004°47'0 0.0
2014-Nov-22 18:33N 52°58' E 004°47'0 0.0
2014-Nov-22 17:30N 52°58' E 004°47'0 0.0
2014-Nov-22 16:30N 52°58' E 004°47'0 0.0
2014-Nov-22 15:30N 52°58' E 004°47'0 0.0
2014-Nov-22 14:33N 52°58' E 004°47'0 0.0
2014-Nov-22 13:30N 52°58' E 004°47'0 0.0
2014-Nov-22 12:33N 52°58' E 004°47'0 0.0
2014-Nov-22 11:30N 52°58' E 004°47'0 0.0
2014-Nov-22 10:33N 52°58' E 004°47'0 0.0
2014-Nov-22 09:33N 52°58' E 004°47'0 0.0
2014-Nov-22 08:33N 52°58' E 004°47'0 0.0
2014-Nov-22 07:33N 52°58' E 004°47'0 0.0
2014-Nov-22 06:33N 52°58' E 004°47'0 0.0
2014-Nov-22 05:24N 52°58' E 004°47'0 0.0
2014-Nov-22 04:24N 52°58' E 004°47'0 0.0
2014-Nov-22 03:27N 52°58' E 004°47'0 0.0
2014-Nov-22 02:33N 52°58' E 004°47'0 0.0
2014-Nov-22 01:27N 52°58' E 004°47'0 0.0
2014-Nov-22 00:33N 52°58' E 004°47'0 0.0
2014-Nov-21 23:30N 52°58' E 004°47'0 0.0
2014-Nov-21 22:33N 52°58' E 004°47'0 0.0
2014-Nov-21 21:33N 52°58' E 004°47'0 0.0
2014-Nov-21 20:33N 52°58' E 004°47'1 0.7
2014-Nov-21 19:32N 52°58' E 004°46'7 5.8
2014-Nov-21 18:19N 52°59' E 004°35'2411.1
2014-Nov-21 16:08N 53°19' E 004°59'6 9.8
2014-Nov-21 15:34N 53°19' E 005°08'4 3.7
2014-Nov-21 14:33N 53°22' E 005°13'0 0.1
2014-Nov-21 13:30N 53°22' E 005°13'0 0.0
2014-Nov-21 12:33N 53°22' E 005°13'0 0.0
2014-Nov-21 11:33N 53°22' E 005°13'0 0.0
2014-Nov-21 10:33N 53°22' E 005°13'0 0.0
2014-Nov-21 09:30N 53°22' E 005°13'0 0.0
2014-Nov-21 08:33N 53°22' E 005°13'0 0.0
2014-Nov-21 07:33N 53°22' E 005°13'0 0.0
2014-Nov-21 06:33N 53°22' E 005°13'0 0.0
2014-Nov-21 05:30N 53°22' E 005°13'0 0.0
2014-Nov-21 04:33N 53°22' E 005°13'0 0.0
2014-Nov-21 03:33N 53°22' E 005°13'0 0.0
2014-Nov-21 02:33N 53°22' E 005°13'0 0.0
2014-Nov-21 01:30N 53°22' E 005°13'0 0.0
2014-Nov-21 00:33N 53°22' E 005°13'0 0.0
2014-Nov-20 23:33N 53°22' E 005°13'0 0.0
2014-Nov-20 22:30N 53°22' E 005°13'0 0.0
2014-Nov-20 21:33N 53°22' E 005°13'0 0.0
2014-Nov-20 20:33N 53°22' E 005°13'0 0.0
2014-Nov-20 19:30N 53°22' E 005°13'0 0.0
2014-Nov-20 18:33N 53°22' E 005°13'0 0.0
2014-Nov-20 17:33N 53°22' E 005°13'  
2014-Nov-18 06:32N 53°22' E 005°13'0 0.0
2014-Nov-18 05:32N 53°22' E 005°13'0 0.0
2014-Nov-18 04:32N 53°22' E 005°13'0 0.0
2014-Nov-18 03:11N 53°22' E 005°13'0 0.0
2014-Nov-18 02:23N 53°22' E 005°13'0 0.0
2014-Nov-18 01:26N 53°22' E 005°13'0 0.0
2014-Nov-17 23:32N 53°22' E 005°13'0 0.0
2014-Nov-17 22:29N 53°22' E 005°13'0 0.0
2014-Nov-17 21:32N 53°22' E 005°13'0 0.0
2014-Nov-17 20:32N 53°22' E 005°13'0 0.0
2014-Nov-17 19:32N 53°22' E 005°13'0 0.0
2014-Nov-17 18:32N 53°22' E 005°13'0 0.0
2014-Nov-17 17:29N 53°22' E 005°13'0 0.0
2014-Nov-17 16:32N 53°22' E 005°13'0 0.0
2014-Nov-17 15:32N 53°22' E 005°13'0 0.0
2014-Nov-17 14:29N 53°22' E 005°13'0 0.0
2014-Nov-17 13:29N 53°22' E 005°13'0 0.0
2014-Nov-17 12:32N 53°22' E 005°13'0 0.0
2014-Nov-17 11:32N 53°22' E 005°13'0 0.0
2014-Nov-17 10:32N 53°22' E 005°13'0 0.0
2014-Nov-17 09:32N 53°22' E 005°13'0 0.0
2014-Nov-17 08:32N 53°22' E 005°13'0 0.0
2014-Nov-17 07:32N 53°22' E 005°13'0 0.0
2014-Nov-17 06:29N 53°22' E 005°13'0 0.0
2014-Nov-17 05:32N 53°22' E 005°13'0 0.0
2014-Nov-17 04:32N 53°22' E 005°13'0 0.0
2014-Nov-17 03:32N 53°22' E 005°13'0 0.0
2014-Nov-17 02:32N 53°22' E 005°13'0 0.0
2014-Nov-17 01:32N 53°22' E 005°13'0 0.0
2014-Nov-17 00:29N 53°22' E 005°13'0 0.0
2014-Nov-16 23:32N 53°22' E 005°13'0 0.0
2014-Nov-16 22:32N 53°22' E 005°13'0 0.0
2014-Nov-16 21:29N 53°22' E 005°13'0 0.0
2014-Nov-16 20:32N 53°22' E 005°13'0 0.0
2014-Nov-16 19:29N 53°22' E 005°13'0 0.0
2014-Nov-16 18:32N 53°22' E 005°13'0 0.0
2014-Nov-16 17:32N 53°22' E 005°13'0 0.0
2014-Nov-16 16:32N 53°22' E 005°13'0 0.0
2014-Nov-16 15:29N 53°22' E 005°13'0 0.0
2014-Nov-16 14:32N 53°22' E 005°13'4 3.9
2014-Nov-16 13:33N 53°18' E 005°14'7 6.6
2014-Nov-16 12:33N 53°12' E 005°18'4 3.8
2014-Nov-16 11:32N 53°10' E 005°25'0 0.0
2014-Nov-16 10:32N 53°10' E 005°25'0 0.0
2014-Nov-16 09:32N 53°10' E 005°25'6 6.1
2014-Nov-16 08:33N 53°14' E 005°16'8 7.8
2014-Nov-16 07:33N 53°20' E 005°08'8 8.0
2014-Nov-16 06:33N 53°18' E 004°54'7 6.4
2014-Nov-16 05:32N 53°24' E 004°58'8 8.7
2014-Nov-16 04:33N 53°28' E 005°11'7 7.0
2014-Nov-16 03:33N 53°35' E 005°11'8 7.9
2014-Nov-16 02:33N 53°38' E 005°23'7 7.3
2014-Nov-16 01:32N 53°41' E 005°35'6 6.5
2014-Nov-16 00:33N 53°43' E 005°45'7 6.8
2014-Nov-15 23:34N 53°45' E 005°55'58 5.3
2014-Nov-15 12:33N 54°01' E 007°30'7 6.7
2014-Nov-15 11:33N 54°02' E 007°41'7 7.2
2014-Nov-15 10:33N 54°02' E 007°54'7 7.2
2014-Nov-15 09:33N 54°02' E 008°06'7 6.6
2014-Nov-15 08:33N 54°01' E 008°17'9 8.7
2014-Nov-15 07:34N 53°58' E 008°31'10 9.6
2014-Nov-15 06:34N 53°52' E 008°44'8 8.3
2014-Nov-15 05:33N 53°51' E 008°58'7 6.0
2014-Nov-15 04:21N 53°54' E 009°09'29 7.6
2014-Nov-15 00:30N 54°17' E 009°39'8 8.3
2014-Nov-14 23:33N 54°22' E 009°50'8 8.1
2014-Nov-14 22:33N 54°22' E 010°03'4 3.8
2014-Nov-14 21:33N 54°22' E 010°10'9 8.7
2014-Nov-14 20:33N 54°30' E 010°15'10 9.1
2014-Nov-14 19:31N 54°39' E 010°09'13 9.5
2014-Nov-14 18:11N 54°49' E 009°56'3 0.6
2014-Nov-14 12:33N 54°48' E 009°51'1 1.5
2014-Nov-14 11:33N 54°49' E 009°50'1 0.6
2014-Nov-14 10:33N 54°50' E 009°51'2 1.4
2014-Nov-14 09:28N 54°50' E 009°49'1 0.6
2014-Nov-14 08:26N 54°50' E 009°50'  
Track history (hours):
 
Tides and Currents Weather Stations Pressure Air Temp Water Temp Dewpoint Dewpoint Depression Visibility Wind Speed Wind Dir Waves Ship Positions

Van Kinsbergen

Last reported at 2014-Nov-24 05:33 UTC. Time now 2014-Nov-24 06:58 UTC.
Position N 52°58' E 004°47'.

Length 40 m; draft 3.1 m.

MMSI: 244736000.

Date/timePositionNaut miles runAvg speedWind from/ knotsBaromVisibWave heightAir tempDewpointWater temp
2014-Nov-24 05:33N 52°58' E 004°47'0 0.0
2014-Nov-24 04:33N 52°58' E 004°47'0 0.0
2014-Nov-24 03:33N 52°58' E 004°47'0 0.0
2014-Nov-24 02:33N 52°58' E 004°47'0 0.0
2014-Nov-24 01:33N 52°58' E 004°47'0 0.0
2014-Nov-24 00:30N 52°58' E 004°47'0 0.0
2014-Nov-23 23:33N 52°58' E 004°47'0 0.0
2014-Nov-23 22:33N 52°58' E 004°47'0 0.0
2014-Nov-23 21:33N 52°58' E 004°47'0 0.0
2014-Nov-23 20:33N 52°58' E 004°47'0 0.0
2014-Nov-23 19:33N 52°58' E 004°47'0 0.0
2014-Nov-23 18:33N 52°58' E 004°47'0 0.0
2014-Nov-23 17:33N 52°58' E 004°47'0 0.0
2014-Nov-23 16:33N 52°58' E 004°47'0 0.0
2014-Nov-23 15:33N 52°58' E 004°47'0 0.0
2014-Nov-23 14:33N 52°58' E 004°47'0 0.0
2014-Nov-23 13:33N 52°58' E 004°47'0 0.0
2014-Nov-23 12:33N 52°58' E 004°47'0 0.0
2014-Nov-23 11:33N 52°58' E 004°47'0 0.0
2014-Nov-23 10:33N 52°58' E 004°47'0 0.0
2014-Nov-23 09:30N 52°58' E 004°47'0 0.0
2014-Nov-23 08:33N 52°58' E 004°47'0 0.0
2014-Nov-23 07:33N 52°58' E 004°47'0 0.0
2014-Nov-23 06:30N 52°58' E 004°47'0 0.0
2014-Nov-23 05:30N 52°58' E 004°47'0 0.0
2014-Nov-23 04:27N 52°58' E 004°47'0 0.0
2014-Nov-23 03:33N 52°58' E 004°47'0 0.0
2014-Nov-23 02:33N 52°58' E 004°47'0 0.0
2014-Nov-23 01:33N 52°58' E 004°47'0 0.0
2014-Nov-23 00:33N 52°58' E 004°47'0 0.0
2014-Nov-22 23:33N 52°58' E 004°47'0 0.0
2014-Nov-22 22:30N 52°58' E 004°47'0 0.0
2014-Nov-22 21:33N 52°58' E 004°47'0 0.0
2014-Nov-22 20:33N 52°58' E 004°47'0 0.0
2014-Nov-22 19:33N 52°58' E 004°47'0 0.0
2014-Nov-22 18:33N 52°58' E 004°47'0 0.0
2014-Nov-22 17:30N 52°58' E 004°47'0 0.0
2014-Nov-22 16:30N 52°58' E 004°47'0 0.0
2014-Nov-22 15:30N 52°58' E 004°47'0 0.0
2014-Nov-22 14:33N 52°58' E 004°47'0 0.0
2014-Nov-22 13:30N 52°58' E 004°47'0 0.0
2014-Nov-22 12:33N 52°58' E 004°47'0 0.0
2014-Nov-22 11:30N 52°58' E 004°47'0 0.0
2014-Nov-22 10:33N 52°58' E 004°47'0 0.0
2014-Nov-22 09:33N 52°58' E 004°47'0 0.0
2014-Nov-22 08:33N 52°58' E 004°47'0 0.0
2014-Nov-22 07:33N 52°58' E 004°47'0 0.0
2014-Nov-22 06:33N 52°58' E 004°47'0 0.0
2014-Nov-22 05:24N 52°58' E 004°47'0 0.0
2014-Nov-22 04:24N 52°58' E 004°47'0 0.0
2014-Nov-22 03:27N 52°58' E 004°47'0 0.0
2014-Nov-22 02:33N 52°58' E 004°47'0 0.0
2014-Nov-22 01:27N 52°58' E 004°47'0 0.0
2014-Nov-22 00:33N 52°58' E 004°47'0 0.0
2014-Nov-21 23:30N 52°58' E 004°47'0 0.0
2014-Nov-21 22:33N 52°58' E 004°47'0 0.0
2014-Nov-21 21:33N 52°58' E 004°47'0 0.0
2014-Nov-21 20:33N 52°58' E 004°47'1 0.7
2014-Nov-21 19:32N 52°58' E 004°46'7 5.8
2014-Nov-21 18:19N 52°59' E 004°35'2411.1
2014-Nov-21 16:08N 53°19' E 004°59'6 9.8
2014-Nov-21 15:34N 53°19' E 005°08'4 3.7
2014-Nov-21 14:33N 53°22' E 005°13'0 0.1
2014-Nov-21 13:30N 53°22' E 005°13'0 0.0
2014-Nov-21 12:33N 53°22' E 005°13'0 0.0
2014-Nov-21 11:33N 53°22' E 005°13'0 0.0
2014-Nov-21 10:33N 53°22' E 005°13'0 0.0
2014-Nov-21 09:30N 53°22' E 005°13'0 0.0
2014-Nov-21 08:33N 53°22' E 005°13'0 0.0
2014-Nov-21 07:33N 53°22' E 005°13'0 0.0
2014-Nov-21 06:33N 53°22' E 005°13'0 0.0
2014-Nov-21 05:30N 53°22' E 005°13'0 0.0
2014-Nov-21 04:33N 53°22' E 005°13'0 0.0
2014-Nov-21 03:33N 53°22' E 005°13'0 0.0
2014-Nov-21 02:33N 53°22' E 005°13'0 0.0
2014-Nov-21 01:30N 53°22' E 005°13'0 0.0
2014-Nov-21 00:33N 53°22' E 005°13'0 0.0
2014-Nov-20 23:33N 53°22' E 005°13'0 0.0
2014-Nov-20 22:30N 53°22' E 005°13'0 0.0
2014-Nov-20 21:33N 53°22' E 005°13'0 0.0
2014-Nov-20 20:33N 53°22' E 005°13'0 0.0
2014-Nov-20 19:30N 53°22' E 005°13'0 0.0
2014-Nov-20 18:33N 53°22' E 005°13'0 0.0
2014-Nov-20 17:33N 53°22' E 005°13'  
2014-Nov-18 06:32N 53°22' E 005°13'0 0.0
2014-Nov-18 05:32N 53°22' E 005°13'0 0.0
2014-Nov-18 04:32N 53°22' E 005°13'0 0.0
2014-Nov-18 03:11N 53°22' E 005°13'0 0.0
2014-Nov-18 02:23N 53°22' E 005°13'0 0.0
2014-Nov-18 01:26N 53°22' E 005°13'0 0.0
2014-Nov-17 23:32N 53°22' E 005°13'0 0.0
2014-Nov-17 22:29N 53°22' E 005°13'0 0.0
2014-Nov-17 21:32N 53°22' E 005°13'0 0.0
2014-Nov-17 20:32N 53°22' E 005°13'0 0.0
2014-Nov-17 19:32N 53°22' E 005°13'0 0.0
2014-Nov-17 18:32N 53°22' E 005°13'0 0.0
2014-Nov-17 17:29N 53°22' E 005°13'0 0.0
2014-Nov-17 16:32N 53°22' E 005°13'0 0.0
2014-Nov-17 15:32N 53°22' E 005°13'0 0.0
2014-Nov-17 14:29N 53°22' E 005°13'0 0.0
2014-Nov-17 13:29N 53°22' E 005°13'0 0.0
2014-Nov-17 12:32N 53°22' E 005°13'0 0.0
2014-Nov-17 11:32N 53°22' E 005°13'0 0.0
2014-Nov-17 10:32N 53°22' E 005°13'0 0.0
2014-Nov-17 09:32N 53°22' E 005°13'0 0.0
2014-Nov-17 08:32N 53°22' E 005°13'0 0.0
2014-Nov-17 07:32N 53°22' E 005°13'0 0.0
2014-Nov-17 06:29N 53°22' E 005°13'0 0.0
2014-Nov-17 05:32N 53°22' E 005°13'0 0.0
2014-Nov-17 04:32N 53°22' E 005°13'0 0.0
2014-Nov-17 03:32N 53°22' E 005°13'0 0.0
2014-Nov-17 02:32N 53°22' E 005°13'0 0.0
2014-Nov-17 01:32N 53°22' E 005°13'0 0.0
2014-Nov-17 00:29N 53°22' E 005°13'0 0.0
2014-Nov-16 23:32N 53°22' E 005°13'0 0.0
2014-Nov-16 22:32N 53°22' E 005°13'0 0.0
2014-Nov-16 21:29N 53°22' E 005°13'0 0.0
2014-Nov-16 20:32N 53°22' E 005°13'0 0.0
2014-Nov-16 19:29N 53°22' E 005°13'0 0.0
2014-Nov-16 18:32N 53°22' E 005°13'0 0.0
2014-Nov-16 17:32N 53°22' E 005°13'0 0.0
2014-Nov-16 16:32N 53°22' E 005°13'0 0.0
2014-Nov-16 15:29N 53°22' E 005°13'0 0.0
2014-Nov-16 14:32N 53°22' E 005°13'4 3.9
2014-Nov-16 13:33N 53°18' E 005°14'7 6.6
2014-Nov-16 12:33N 53°12' E 005°18'4 3.8
2014-Nov-16 11:32N 53°10' E 005°25'0 0.0
2014-Nov-16 10:32N 53°10' E 005°25'0 0.0
2014-Nov-16 09:32N 53°10' E 005°25'6 6.1
2014-Nov-16 08:33N 53°14' E 005°16'8 7.8
2014-Nov-16 07:33N 53°20' E 005°08'8 8.0
2014-Nov-16 06:33N 53°18' E 004°54'7 6.4
2014-Nov-16 05:32N 53°24' E 004°58'8 8.7
2014-Nov-16 04:33N 53°28' E 005°11'7 7.0
2014-Nov-16 03:33N 53°35' E 005°11'8 7.9
2014-Nov-16 02:33N 53°38' E 005°23'7 7.3
2014-Nov-16 01:32N 53°41' E 005°35'6 6.5
2014-Nov-16 00:33N 53°43' E 005°45'7 6.8
2014-Nov-15 23:34N 53°45' E 005°55'58 5.3
2014-Nov-15 12:33N 54°01' E 007°30'7 6.7
2014-Nov-15 11:33N 54°02' E 007°41'7 7.2
2014-Nov-15 10:33N 54°02' E 007°54'7 7.2
2014-Nov-15 09:33N 54°02' E 008°06'7 6.6
2014-Nov-15 08:33N 54°01' E 008°17'9 8.7
2014-Nov-15 07:34N 53°58' E 008°31'10 9.6
2014-Nov-15 06:34N 53°52' E 008°44'8 8.3
2014-Nov-15 05:33N 53°51' E 008°58'7 6.0
2014-Nov-15 04:21N 53°54' E 009°09'29 7.6
2014-Nov-15 00:30N 54°17' E 009°39'8 8.3
2014-Nov-14 23:33N 54°22' E 009°50'8 8.1
2014-Nov-14 22:33N 54°22' E 010°03'4 3.8
2014-Nov-14 21:33N 54°22' E 010°10'9 8.7
2014-Nov-14 20:33N 54°30' E 010°15'10 9.1
2014-Nov-14 19:31N 54°39' E 010°09'13 9.5
2014-Nov-14 18:11N 54°49' E 009°56'3 0.6
2014-Nov-14 12:33N 54°48' E 009°51'1 1.5
2014-Nov-14 11:33N 54°49' E 009°50'1 0.6
2014-Nov-14 10:33N 54°50' E 009°51'2 1.4
2014-Nov-14 09:28N 54°50' E 009°49'1 0.6
2014-Nov-14 08:26N 54°50' E 009°50'  

Dump ship's entire track history